Terminal Aerodrome Forecast
Issued by NWS Sioux Falls, SD

Home | Current Version | Previous Version | Graphics & Text | Print | Product List | Glossary On
Versions: 1 2 3 4 5 6 7 8 9 10 11 12 13 14 15
290
FTUS43 KFSD 171720
TAFHON
TAF
KHON 171720Z 1718/1818 12013KT P6SM SCT200
     FM180300 07006KT P6SM BKN080
     FM180600 05006KT P6SM -SN OVC045
     FM181000 01007KT 6SM -SN OVC015
     FM181200 34009KT 1SM -SN OVC008
     FM181600 34009KT 2SM -SNRA OVC008
     FM181700 33010KT P6SM OVC008=

USA.gov is the U.S. government's official web portal to all federal, state and local government web resources and services.